Flight Track Log - Related Links

Times and Time Zones

All times are in EDT time to prevent confusion due to time zone crossing. See the ASA603 flight status page for this flight to view local times or setup timezone preferences in your user account.

Time Position Orientation Groundspeed Altitude Reporting Facility
EDT Latitude Longitude Course Direction KTS MPH feet Rate Location/Type
Mon 10:03:46 AM 36.0758 -115.1764 249° West 189 217 3,200  Level Los Angeles Center
Mon 10:05:06 AM 36.0489 -115.2647 249° West 259 298 5,600 1,969 Climbing Los Angeles Center
Mon 10:05:54 AM 35.9831 -115.2972 202° Southwest 298 343 7,400 2,862 Climbing Los Angeles Center
Mon 10:06:55 AM 35.9217 -115.3622 221° Southwest 282 325 10,800 1,820 Climbing Los Angeles Center
Mon 10:07:56 AM 35.8850 -115.4433 241° Southwest 283 326 11,100 207 Climbing Los Angeles Center
Mon 10:08:22 AM 35.8850 -115.4578 270° West 287 330 11,100  Level Los Angeles Center
Mon 10:08:51 AM 35.8872 -115.5328 272° West 284 327 11,100  Level Los Angeles Center
Mon 10:09:24 AM 35.8883 -115.5831 272° West 285 328 11,100 442 Level Los Angeles Center
Mon 10:10:26 AM 35.8900 -115.6817 271° West 287 330 11,800 1,317 Climbing Los Angeles Center
Mon 10:11:27 AM 35.8922 -115.8006 271° West 327 376 13,800 1,854 Climbing Los Angeles Center
Mon 10:12:29 AM 35.8958 -115.9264 272° West 364 419 15,600 2,000 Climbing Los Angeles Center
Mon 10:13:30 AM 35.9506 -116.0369 301° West 392 451 17,900 2,195 Climbing Los Angeles Center
Mon 10:14:32 AM 36.0414 -116.1397 318° Northwest 410 472 20,100 2,177 Climbing Los Angeles Center
Mon 10:15:34 AM 36.1231 -116.2344 317° Northwest 416 479 22,400 2,000 Climbing Los Angeles Center
Mon 10:16:35 AM 36.2092 -116.3303 318° Northwest 417 480 24,200 1,610 Climbing Los Angeles Center
Mon 10:17:37 AM 36.2958 -116.4306 317° Northwest 422 486 25,700 1,366 Climbing Los Angeles Center
Mon 10:18:38 AM 36.3858 -116.5361 317° Northwest 441 507 27,000 1,415 Climbing Los Angeles Center
Mon 10:19:40 AM 36.4761 -116.6414 317° Northwest 445 512 28,600 1,659 Climbing Los Angeles Center
Mon 10:20:41 AM 36.5697 -116.7506 317° Northwest 442 509 30,400 1,600 Climbing Los Angeles Center
Mon 10:21:55 AM 36.6953 -116.8453 329° Northwest 439 505 32,200 1,588 Climbing Los Angeles Center
Mon 10:22:57 AM 36.8186 -116.9403 328° Northwest 435 501 34,000 1,512 Climbing Los Angeles Center
Mon 10:23:58 AM 36.9197 -117.0175 329° Northwest 427 491 35,300 1,111 Climbing Los Angeles Center
Mon 10:24:18 AM 36.9389 -117.0347 324° Northwest 428 493 35,500 519 Climbing Oakland Center
Mon 10:25:19 AM 37.0381 -117.1103 329° Northwest 419 482 36,000 246 Climbing Oakland Center
Mon 10:26:20 AM 37.1381 -117.1875 328° Northwest 419 482 36,000  Level Oakland Center
Mon 10:27:21 AM 37.2372 -117.2647 328° Northwest 419 482 36,000  Level Oakland Center
Mon 10:28:22 AM 37.3578 -117.3483 331° Northwest 413 475 36,000  Level Oakland Center
Mon 10:29:23 AM 37.4656 -117.4086 336° Northwest 422 486 36,000  Level Oakland Center
Mon 10:30:24 AM 37.5747 -117.4689 336° Northwest 426 490 36,000  Level Oakland Center
Mon 10:31:26 AM 37.6850 -117.5292 337° Northwest 428 493 36,000  Level Oakland Center
Mon 10:32:27 AM 37.7947 -117.5883 337° Northwest 426 490 36,000  Level Oakland Center
Mon 10:33:28 AM 37.9047 -117.6481 337° Northwest 426 490 36,000  Level Oakland Center
Mon 10:34:29 AM 38.0144 -117.7094 336° Northwest 427 491 36,000  Level Oakland Center
Mon 10:35:30 AM 38.1242 -117.7694 337° Northwest 425 489 36,000  Level Oakland Center
Mon 10:36:31 AM 38.2333 -117.8308 336° Northwest 425 489 36,000  Level Oakland Center
Mon 10:37:32 AM 38.3414 -117.8911 336° Northwest 422 486 36,000  Level Oakland Center
Mon 10:38:33 AM 38.4486 -117.9503 337° Northwest 418 481 36,000  Level Oakland Center
Mon 10:39:35 AM 38.5569 -118.0106 336° Northwest 421 484 36,000  Level Oakland Center
Mon 10:40:36 AM 38.6606 -118.0708 336° Northwest 422 486 36,000  Level Oakland Center
Mon 10:41:37 AM 38.7678 -118.1303 337° Northwest 421 484 36,000  Level Oakland Center
Mon 10:42:38 AM 38.8956 -118.2033 336° Northwest 419 482 36,000  Level Oakland Center
Mon 10:43:39 AM 39.0025 -118.2644 336° Northwest 420 483 36,000 49 Level Oakland Center
Mon 10:44:41 AM 39.1081 -118.3253 336° Northwest 417 480 36,100 341 Climbing Oakland Center
Mon 10:45:42 AM 39.2122 -118.3844 336° Northwest 412 474 36,700 590 Climbing Oakland Center
Mon 10:46:43 AM 39.3231 -118.4481 336° Northwest 412 474 37,300 590 Climbing Oakland Center
Mon 10:47:44 AM 39.4289 -118.5083 336° Northwest 414 476 37,900 344 Climbing Oakland Center
Mon 10:48:45 AM 39.5222 -118.5639 335° Northwest 410 472 38,000 49 Climbing Oakland Center
Mon 10:49:47 AM 39.6447 -118.6350 336° Northwest 407 468 38,000  Level Oakland Center
Mon 10:50:48 AM 39.7461 -118.6942 336° Northwest 403 464 38,000  Level Oakland Center
Mon 10:51:49 AM 39.8469 -118.7547 335° Northwest 401 461 38,000  Level Oakland Center
Mon 10:52:50 AM 39.9483 -118.8142 336° Northwest 401 461 38,000  Level Oakland Center
Mon 10:53:51 AM 40.0497 -118.8747 335° Northwest 403 464 38,000  Level Oakland Center
Mon 10:54:52 AM 40.1494 -118.9339 336° Northwest 395 455 38,000  Level Oakland Center
Mon 10:55:54 AM 40.2486 -118.9919 336° Northwest 391 450 38,000  Level Oakland Center
Mon 10:56:55 AM 40.3472 -119.0508 336° Northwest 390 449 38,000  Level Oakland Center
Mon 10:57:56 AM 40.4453 -119.1100 335° Northwest 389 448 38,000  Level Oakland Center
Mon 10:58:57 AM 40.5447 -119.1689 336° Northwest 389 448 38,000  Level Oakland Center
Mon 10:59:58 AM 40.6622 -119.2403 335° Northwest 388 447 38,000  Level Oakland Center
Mon 11:01:00 AM 40.7611 -119.3011 335° Northwest 391 450 38,000  Level Oakland Center
Mon 11:02:01 AM 40.8597 -119.3594 336° Northwest 390 449 38,000  Level Oakland Center
Mon 11:04:03 AM 41.0439 -119.4736 335° Northwest 382 440 38,000  Level Oakland Center
Mon 11:05:04 AM 41.1531 -119.5389 336° Northwest 381 438 38,000  Level Oakland Center
Mon 11:05:20 AM 41.1717 -119.5511 334° Northwest 380 437 38,000  Level Seattle Center
Mon 11:06:21 AM 41.2658 -119.6119 334° Northwest 377 434 38,000  Level Seattle Center
Mon 11:07:06 AM 41.3419 -119.6569 336° Northwest 375 432 38,000  Level Oakland Center
Mon 11:07:22 AM 41.3606 -119.6683 335° Northwest 375 432 38,000  Level Seattle Center
Mon 11:08:23 AM 41.4617 -119.7242 338° Northwest 388 447 38,000  Level Seattle Center
Mon 11:09:23 AM 41.5558 -119.7839 335° Northwest 380 437 38,000  Level Seattle Center
Mon 11:10:24 AM 41.6522 -119.8442 335° Northwest 381 438 38,000  Level Seattle Center
Mon 11:11:11 AM 41.7244 -119.8928 333° Northwest 379 436 38,000  Level Oakland Center
Mon 11:12:12 AM 41.8200 -119.9528 335° Northwest 381 438 38,000  Level Oakland Center
Mon 11:13:13 AM 41.9153 -120.0111 336° Northwest 378 435 38,000  Level Oakland Center
Mon 11:13:47 AM 41.9883 -120.0542 336° Northwest 376 433 38,000  Level Salt Lake Center
Mon 11:14:28 AM 42.0453 -120.0953 332° Northwest 373 429 38,000  Level Seattle Center
Mon 11:15:29 AM 42.1406 -120.1528 336° Northwest 375 432 38,000  Level Seattle Center
Mon 11:16:29 AM 42.2347 -120.2136 334° Northwest 377 434 38,000  Level Seattle Center
Mon 11:17:30 AM 42.3278 -120.2719 335° Northwest 371 427 38,000  Level Seattle Center
Mon 11:18:31 AM 42.4222 -120.3314 335° Northwest 373 429 38,000  Level Seattle Center
Mon 11:19:32 AM 42.5172 -120.3922 335° Northwest 377 434 38,000  Level Seattle Center
Mon 11:20:33 AM 42.6106 -120.4536 334° Northwest 373 429 38,000  Level Seattle Center
Mon 11:21:34 AM 42.7036 -120.5131 335° Northwest 370 426 38,000  Level Seattle Center
Mon 11:22:34 AM 42.7956 -120.5722 335° Northwest 368 423 38,000  Level Seattle Center
Mon 11:23:35 AM 42.8867 -120.6319 334° Northwest 365 420 38,000  Level Seattle Center
Mon 11:24:36 AM 42.9783 -120.6914 335° Northwest 364 419 38,000  Level Seattle Center
Mon 11:25:37 AM 43.0703 -120.7506 335° Northwest 365 420 38,000  Level Seattle Center
Mon 11:26:38 AM 43.1814 -120.8214 335° Northwest 368 423 38,000  Level Seattle Center
Mon 11:27:39 AM 43.2742 -120.8836 334° Northwest 370 426 38,000  Level Seattle Center
Mon 11:28:39 AM 43.3681 -120.9472 334° Northwest 375 432 38,000  Level Seattle Center
Mon 11:29:40 AM 43.4600 -121.0069 335° Northwest 368 423 38,000  Level Seattle Center
Mon 11:30:41 AM 43.5536 -121.0694 334° Northwest 372 428 38,000  Level Seattle Center
Mon 11:31:42 AM 43.6436 -121.1289 334° Northwest 369 425 38,000  Level Seattle Center
Mon 11:32:43 AM 43.7406 -121.1947 334° Northwest 375 432 38,000  Level Seattle Center
Mon 11:33:43 AM 43.8339 -121.2567 334° Northwest 378 435 38,000  Level Seattle Center
Mon 11:34:44 AM 43.9289 -121.3211 334° Northwest 378 435 38,000  Level Seattle Center
Mon 11:35:45 AM 44.0236 -121.3847 334° Northwest 376 433 38,000  Level Seattle Center
Mon 11:36:46 AM 44.1181 -121.4483 334° Northwest 373 429 38,000  Level Seattle Center
Mon 11:37:46 AM 44.2131 -121.5131 334° Northwest 374 430 38,000  Level Seattle Center
Mon 11:38:47 AM 44.2831 -121.6172 313° West 371 427 38,000  Level Seattle Center
Mon 11:39:48 AM 44.3442 -121.7306 307° West 364 419 38,000  Level Seattle Center
Mon 11:40:49 AM 44.4050 -121.8425 307° West 361 415 38,000  Level Seattle Center
Mon 11:41:50 AM 44.4694 -121.9661 306° West 355 409 38,000  Level Seattle Center
Mon 11:42:50 AM 44.5292 -122.0783 307° West 358 412 38,000  Level Seattle Center
Mon 11:43:51 AM 44.5900 -122.1908 307° West 362 417 38,000  Level Seattle Center
Mon 11:44:52 AM 44.6500 -122.3036 307° West 362 417 38,000  Level Seattle Center
Mon 11:45:53 AM 44.7106 -122.4192 306° West 367 422 38,000  Level Seattle Center
Mon 11:46:53 AM 44.7850 -122.5167 317° Northwest 377 434 38,000  Level Seattle Center
Mon 11:47:54 AM 44.8986 -122.5233 358° North 396 456 38,000  Level Seattle Center
Mon 11:48:55 AM 45.0039 -122.4411 29° Northeast 433 498 38,000  Level Seattle Center
Mon 11:49:56 AM 45.1117 -122.4528 356° North 391 450 38,000 -50 Level Seattle Center
Mon 11:50:56 AM 45.2158 -122.4750 351° North 383 441 37,900  Descending Seattle Center
Mon 11:51:57 AM 45.3181 -122.4972 351° North 375 432 38,000 49 Climbing Seattle Center
Mon 11:52:58 AM 45.4186 -122.5183 352° North 368 423 38,000  Level Seattle Center
Mon 11:53:59 AM 45.5175 -122.5411 351° North 363 418 38,000 -49 Level Seattle Center
Mon 11:55:00 AM 45.6169 -122.5622 352° North 362 417 37,900 -397 Descending Seattle Center
Mon 11:56:00 AM 45.7347 -122.5906 350° North 359 413 37,200 -893 Descending Seattle Center
Mon 11:57:01 AM 45.8294 -122.6119 351° North 351 404 36,100 -1,869 Descending Seattle Center
Mon 11:58:02 AM 45.9219 -122.6347 350° North 342 394 33,400 -2,705 Descending Seattle Center
Mon 11:59:03 AM 46.0158 -122.6572 351° North 342 394 30,600 -2,557 Descending Seattle Center
Mon 12:00:04 PM 46.1083 -122.6811 350° North 341 392 28,200 -2,213 Descending Seattle Center
Mon 12:01:05 PM 46.1975 -122.7014 351° North 330 380 26,100 -1,983 Descending Seattle Center
Mon 12:02:05 PM 46.2808 -122.7158 353° North 313 360 24,200 -1,835 Descending Seattle Center
Mon 12:03:06 PM 46.3592 -122.7261 355° North 297 342 22,400 -1,672 Descending Seattle Center
Mon 12:04:07 PM 46.4397 -122.7219 North 293 337 20,800 -1,820 Descending Seattle Center
Mon 12:05:08 PM 46.5369 -122.7156 North 294 338 18,700 -1,721 Descending Seattle Center
Mon 12:06:09 PM 46.6225 -122.7117 North 308 354 17,300 -1,785 Descending Seattle Center
Mon 12:07:09 PM 46.7078 -122.7089 North 314 361 15,100 -2,033 Descending Seattle Center
Mon 12:08:10 PM 46.7914 -122.7050 North 305 351 13,200 -1,918 Descending Seattle Center
Mon 12:09:11 PM 46.8583 -122.6494 30° Northeast 290 334 11,200 -1,475 Descending Seattle Center
Mon 12:10:12 PM 46.9167 -122.5689 43° Northeast 289 333 10,200 -1,063 Descending Seattle Center
Mon 12:10:30 PM 46.9386 -122.5425 39° Northeast 267 307 9,800 -1,082 Descending Seattle Center
Mon 12:11:13 PM 46.9678 -122.5014 44° Northeast 255 293 9,100 -1,180 Descending Seattle Center
Mon 12:11:31 PM 46.9906 -122.4756 38° Northeast 242 278 8,600 -984 Descending Seattle Center
Mon 12:12:14 PM 47.0194 -122.4367 43° Northeast 250 288 8,100 -981 Descending Seattle Center
Mon 12:13:15 PM 47.0778 -122.3886 29° Northeast 244 281 6,900 -1,082 Descending Seattle Center
Mon 12:14:16 PM 47.1461 -122.3367 27° Northeast 234 269 5,900 -1,038 Descending Seattle Center
Mon 12:15:28 PM 47.2158 -122.3133 13° North 223 257 4,600 -1,041 Descending Seattle Center
Mon 12:16:17 PM 47.2639 -122.3128 360° North 213 245 3,800 -982 Descending Seattle Center
Mon 12:17:18 PM 47.3169 -122.3125 360° North 196 226 2,800 -984 Descending Seattle Center
Mon 12:18:19 PM 47.3650 -122.3119 360° North 178 205 1,800 -836 Descending Seattle Center
Mon 12:19:20 PM 47.4025 -122.3117 360° North 141 162 1,100 -738 Descending Seattle Center
Mon 12:20:21 PM 47.4439 -122.3119 360° North 138 159 300 -787 Descending Seattle Center
Mon 12:22:00 PM 47.4499 -122.3118 North  Level Estimated

Login

Don't have an account? Register now (free) for customized features, flight alerts, and more!